Aérodrome :







RETROUVEZ-NOUS SUR...

 
LOGIN :

S'inscrire | Disclaimer

   EN    FR    IT 

 









Légende :    VFR   VFR Marginal   IFR   IFR Intensif   IFR Très Intensif
Visi : 
Plafond : 
>= 8 km
>= 3000ft
5 à 8 km
1000 à 3000 ft
1500m à 5 km
500 à 1000 ft
800 à 1500m
200 à 500 ft
< 800m
< 200 ft
Symboles :   Orages  Brouillard  Fortes neiges  Fortes précipitations  Vent > 20 kt






- Altitude de l'aérodrome : 108 ft
- Code IATA : YAY


CYAY - St Anthony

DERNIER METAR :
  • 151437Z AUTO 10023G30KT 5SM -RA BR BKN007 OVC016 01/M00 A2930 RMK PRESFR SLP926

METARs EXPIRÉS :
  • 151431Z AUTO 10022G30KT 7SM -RA OVC007 01/M00 A2931 RMK PRESFR SLP929
  • 151419Z AUTO 10024G32KT 7SM OVC007 01/M00 A2933 RMK PRESFR SLP934
  • 151408Z AUTO 10023G33KT 6SM -RA BR OVC007 01/M00 A2934 RMK PRESFR SLP938
  • 151335Z AUTO 10023G33KT 8SM -RA BKN007 OVC013 00/M00 A2939 RMK PRESFR SLP956
  • 151316Z AUTO 10025G30KT 4SM -RA BR BKN007 OVC011 00/M01 A2941 RMK PRESFR SLP962
  • 151255Z AUTO 10025G36KT 3SM -RA BR BKN009 OVC013 00/M01 A2944 RMK SLP973
  • 151248Z AUTO 10029G36KT 2 1/2SM -RA BR BKN009 OVC013 00/M01 A2945 RMK SLP976
  • 151219Z AUTO 11030G43KT 3SM -RA BR BKN009 OVC017 00/M01 A2947 RMK PRESFR SLP983
  • 151211Z AUTO 11034G43KT 3SM -RA BR SCT009 OVC017 00/M01 A2949 RMK PRESFR SLP988
  • 151201Z AUTO 10028G39KT 2 1/2SM -RA BR BKN011 OVC017 00/M01 A2951 RMK SLP996

TAF TAF CYAY
Valide du 15 à 14h jusqu'au 16 à 02h UTC


151345Z 1514/1602 10025G35KT 6SM -RA BR SCT007 OVC012
TEMPO 1514/1518 21/2SM -RA BR OVC005
BECMG 1516/1518 12015G25KT
FM151800 12015G25KT 3/4SM -RA BR OVC003
TEMPO 1518/1524 3SM -DZ BR OVC006
BECMG 1519/1521 15015G25KT
FM160000 24015G25KT 2SM -RA BR OVC006 RMK FCST BASED ON AUTO OBS. NXT FCST BY 152000Z



MET'MAP, la Météo Aéronautique d'un coup d'oeil ! - Copyright ORBIFLY Décembre 2007 - Disclaimer

ORBIFLY MET'MAP TEAM :

Programmation & Développement : Alexandra Zaïnal
Sur une idée originale de : Baudouin d'Aumeries
Assistance à la programmation : Marc-Olivier Méhu
Soutien technique & logistique : Manuel Goepfert

Contact : metmap@orbifly.com




SOURCES & CREDITS :

   NOAA